createdAt,value
2023-05-15T00:01:01.211Z,5.40
2023-05-15T00:03:33.406Z,6.85
2023-05-15T00:06:01.701Z,6.38
2023-05-15T00:08:31.307Z,6.60
2023-05-15T00:11:02.145Z,6.15
2023-05-15T00:13:30.955Z,6.22
2023-05-15T00:15:59.271Z,8.15
2023-05-15T00:18:27.799Z,7.30
2023-05-15T00:20:56.166Z,6.05
2023-05-15T00:23:24.450Z,4.85
2023-05-15T00:25:54.053Z,5.10
2023-05-15T00:28:22.329Z,5.35
2023-05-15T00:30:51.926Z,7.05
2023-05-15T00:33:20.262Z,6.78
2023-05-15T00:35:48.593Z,6.13
2023-05-15T00:38:16.815Z,5.95
2023-05-15T00:40:45.785Z,6.65
2023-05-15T00:43:16.266Z,6.05
2023-05-15T00:45:45.422Z,5.80
2023-05-15T00:48:14.044Z,7.82
2023-05-15T00:50:42.574Z,6.68
2023-05-15T00:53:10.997Z,7.95
2023-05-15T00:55:39.638Z,6.45
2023-05-15T00:58:08.672Z,6.38
2023-05-15T01:00:38.323Z,7.47
2023-05-15T01:03:06.940Z,6.77
2023-05-15T01:05:35.316Z,6.97
2023-05-15T01:08:08.776Z,9.60
2023-05-15T01:10:37.585Z,9.55
2023-05-15T01:13:06.302Z,6.45
2023-05-15T01:15:34.687Z,6.45
2023-05-15T01:18:06.101Z,6.95
2023-05-15T01:20:38.872Z,6.43
2023-05-15T01:23:11.317Z,7.10
2023-05-15T01:25:48.110Z,6.68
2023-05-15T01:28:20.866Z,6.22
2023-05-15T01:30:50.262Z,7.13
2023-05-15T01:33:23.623Z,6.85
2023-05-15T01:35:56.178Z,7.50
2023-05-15T01:38:31.143Z,7.43
2023-05-15T01:41:03.746Z,7.55
2023-05-15T01:43:34.198Z,7.43
2023-05-15T01:46:02.532Z,7.07
2023-05-15T01:48:31.663Z,8.02
2023-05-15T01:51:03.408Z,7.97
2023-05-15T01:53:33.149Z,8.63
2023-05-15T01:56:01.914Z,8.83
2023-05-15T01:58:30.599Z,9.32
2023-05-15T02:01:01.259Z,9.40
2023-05-15T02:05:57.773Z,9.63
2023-05-15T02:08:28.876Z,10.15
2023-05-15T02:10:58.248Z,10.55
2023-05-15T02:13:27.161Z,10.65
2023-05-15T02:15:55.803Z,11.85
2023-05-15T02:18:25.675Z,10.38
2023-05-15T02:20:53.965Z,12.60
2023-05-15T02:23:22.246Z,11.65
2023-05-15T02:26:02.549Z,12.60
2023-05-15T02:28:36.547Z,12.30
2023-05-15T02:31:09.732Z,12.63
2023-05-15T02:33:43.815Z,12.55
2023-05-15T02:36:15.535Z,16.10
2023-05-15T02:38:48.534Z,15.32
2023-05-15T02:41:17.976Z,14.38
2023-05-15T02:43:48.259Z,15.85
2023-05-15T02:46:17.856Z,14.73
2023-05-15T02:48:48.284Z,14.03
2023-05-15T02:51:16.542Z,14.93
2023-05-15T02:53:45.242Z,17.95
2023-05-15T02:56:13.502Z,16.38
2023-05-15T02:58:41.817Z,15.23
2023-05-15T03:01:10.078Z,16.38
2023-05-15T03:03:38.316Z,15.80
2023-05-15T03:06:08.309Z,15.70
2023-05-15T03:08:36.533Z,14.75
2023-05-15T03:11:05.435Z,13.23
2023-05-15T03:13:33.749Z,15.63
2023-05-15T03:16:02.152Z,14.60
2023-05-15T03:18:30.503Z,14.88
2023-05-15T03:20:58.823Z,13.98
2023-05-15T03:23:28.418Z,14.57
2023-05-15T03:25:56.671Z,15.70
2023-05-15T03:28:25.088Z,15.93
2023-05-15T03:30:53.300Z,13.85
2023-05-15T03:33:21.579Z,14.55
2023-05-15T03:35:51.204Z,16.30
2023-05-15T03:38:19.517Z,15.10
2023-05-15T03:40:50.993Z,14.48
2023-05-15T03:43:19.532Z,15.30
2023-05-15T03:45:47.781Z,14.90
2023-05-15T03:48:16.036Z,13.45
2023-05-15T03:50:45.788Z,14.48
2023-05-15T03:53:14.121Z,14.48
2023-05-15T03:55:42.402Z,15.35
2023-05-15T03:58:11.977Z,16.02
2023-05-15T04:00:40.189Z,15.48
2023-05-15T04:03:08.566Z,15.45
2023-05-15T04:05:36.994Z,15.25
2023-05-15T04:08:05.634Z,18.13
2023-05-15T04:10:33.898Z,14.45
2023-05-15T04:13:02.105Z,17.63
2023-05-15T04:15:31.765Z,17.75
2023-05-15T04:18:00.030Z,15.53
2023-05-15T04:20:28.419Z,18.52
2023-05-15T04:22:56.732Z,15.60
2023-05-15T04:25:25.688Z,17.75
2023-05-15T04:27:54.106Z,17.48
2023-05-15T04:30:22.370Z,15.95
2023-05-15T04:32:52.748Z,17.27
2023-05-15T04:35:21.106Z,18.65
2023-05-15T04:37:49.354Z,17.02
2023-05-15T04:40:18.056Z,18.15
2023-05-15T04:42:46.411Z,18.30
2023-05-15T04:45:14.801Z,19.10
2023-05-15T04:47:43.148Z,18.55
2023-05-15T04:50:13.027Z,18.00
2023-05-15T04:52:41.260Z,19.35
2023-05-15T04:55:11.523Z,18.50
2023-05-15T04:57:39.814Z,18.80
2023-05-15T05:00:12.291Z,19.35
2023-05-15T05:02:40.981Z,19.13
2023-05-15T05:05:10.039Z,20.33
2023-05-15T05:07:39.621Z,18.27
2023-05-15T05:10:09.487Z,19.25
2023-05-15T05:12:37.756Z,19.17
2023-05-15T05:15:07.002Z,20.60
2023-05-15T05:17:35.300Z,19.23
2023-05-15T05:20:03.582Z,21.83
2023-05-15T05:22:31.866Z,20.58
2023-05-15T05:25:01.779Z,21.88
2023-05-15T05:27:30.520Z,20.85
2023-05-15T05:29:58.710Z,23.15
2023-05-15T05:32:26.998Z,22.15
2023-05-15T05:34:55.241Z,24.20
2023-05-15T05:37:23.570Z,20.73
2023-05-15T05:39:51.800Z,22.83
2023-05-15T05:42:21.403Z,24.27
2023-05-15T05:44:49.615Z,23.17
2023-05-15T05:47:17.914Z,23.45
2023-05-15T05:49:48.151Z,24.23
2023-05-15T05:52:17.006Z,26.50
2023-05-15T05:54:46.405Z,23.42
2023-05-15T05:57:14.761Z,26.02
2023-05-15T05:59:44.368Z,24.35
2023-05-15T06:02:13.539Z,22.08
2023-05-15T06:04:41.928Z,25.35
2023-05-15T06:07:10.521Z,25.00
2023-05-15T06:09:38.823Z,24.77
2023-05-15T06:12:08.388Z,24.38
2023-05-15T06:14:37.075Z,25.67
2023-05-15T06:17:06.889Z,22.48
2023-05-15T06:19:35.193Z,24.67
2023-05-15T06:22:03.447Z,23.35
2023-05-15T06:24:31.694Z,25.13
2023-05-15T06:27:00.068Z,23.83
2023-05-15T06:29:28.334Z,22.13
2023-05-15T06:31:56.670Z,23.48
2023-05-15T06:34:26.283Z,23.70
2023-05-15T06:36:54.520Z,22.30
2023-05-15T06:39:22.716Z,20.75
2023-05-15T06:41:51.125Z,19.98
2023-05-15T06:44:19.409Z,20.73
2023-05-15T06:46:47.751Z,20.92
2023-05-15T06:49:16.099Z,20.58
2023-05-15T06:51:45.700Z,18.90
2023-05-15T06:54:13.962Z,18.08
2023-05-15T06:56:42.448Z,18.50
2023-05-15T06:59:10.699Z,19.10
2023-05-15T07:01:39.170Z,19.17
2023-05-15T07:04:07.826Z,19.65
2023-05-15T07:06:36.469Z,17.15
2023-05-15T07:09:06.454Z,15.65
2023-05-15T07:11:37.374Z,15.57
2023-05-15T07:14:05.702Z,15.50
2023-05-15T07:16:33.997Z,13.70
2023-05-15T07:19:02.545Z,13.23
2023-05-15T07:21:30.892Z,14.80
2023-05-15T07:23:59.128Z,12.75
2023-05-15T07:26:36.199Z,16.02
2023-05-15T07:29:10.318Z,14.57
2023-05-15T07:31:40.425Z,11.23
2023-05-15T07:34:08.791Z,13.03
2023-05-15T07:36:37.038Z,13.50
2023-05-15T07:39:05.480Z,11.60
2023-05-15T07:41:35.042Z,10.98
2023-05-15T07:44:03.305Z,12.82
2023-05-15T07:46:31.655Z,12.23
2023-05-15T07:49:00.016Z,12.80
2023-05-15T07:51:28.257Z,9.98
2023-05-15T07:53:56.649Z,9.70
2023-05-15T07:56:24.952Z,11.82
2023-05-15T07:58:54.622Z,9.48
2023-05-15T08:01:22.912Z,12.18
2023-05-15T08:03:51.329Z,9.45
2023-05-15T08:06:19.657Z,9.15
2023-05-15T08:08:47.848Z,9.07
2023-05-15T08:11:16.112Z,8.18
2023-05-15T08:13:45.591Z,9.02
2023-05-15T08:16:15.276Z,7.05
2023-05-15T08:18:43.599Z,7.85
2023-05-15T08:21:12.194Z,7.47
2023-05-15T08:23:40.393Z,7.88
2023-05-15T08:26:08.605Z,8.95
2023-05-15T08:28:36.881Z,6.50
2023-05-15T08:31:05.263Z,7.70
2023-05-15T08:33:34.943Z,9.45
2023-05-15T08:36:03.276Z,8.15
2023-05-15T08:38:31.627Z,7.95
2023-05-15T08:41:05.310Z,8.90
2023-05-15T08:43:36.187Z,5.97
2023-05-15T08:46:04.628Z,6.63
2023-05-15T08:48:38.294Z,7.60
2023-05-15T08:51:10.556Z,7.30
2023-05-15T08:53:39.256Z,6.68
2023-05-15T08:56:07.853Z,6.32
2023-05-15T08:58:36.239Z,6.70
2023-05-15T09:01:04.850Z,7.43
2023-05-15T09:03:34.603Z,7.22
2023-05-15T09:06:04.485Z,8.00
2023-05-15T09:08:33.698Z,7.78
2023-05-15T09:11:03.795Z,7.15
2023-05-15T09:13:32.292Z,7.72
2023-05-15T09:16:01.378Z,6.68
2023-05-15T09:18:30.025Z,9.35
2023-05-15T09:21:26.166Z,7.30
2023-05-15T09:23:54.432Z,7.93
2023-05-15T09:26:22.686Z,5.53
2023-05-15T09:28:51.049Z,6.68
2023-05-15T09:31:20.594Z,5.88
2023-05-15T09:33:48.862Z,5.90
2023-05-15T09:36:23.300Z,5.38
2023-05-15T09:38:59.388Z,7.78
2023-05-15T09:41:28.741Z,8.15
2023-05-15T09:43:57.494Z,6.47
2023-05-15T09:46:25.992Z,6.07
2023-05-15T09:48:55.855Z,5.97
2023-05-15T09:51:25.518Z,5.60
2023-05-15T09:53:54.308Z,7.30
2023-05-15T09:56:23.011Z,6.50
2023-05-15T09:58:54.659Z,6.13
2023-05-15T10:01:23.430Z,5.68
2023-05-15T10:04:01.156Z,5.88
2023-05-15T10:06:36.175Z,5.85
2023-05-15T10:09:05.277Z,5.47
2023-05-15T10:11:35.737Z,5.55
2023-05-15T10:16:34.787Z,6.57
2023-05-15T10:19:05.375Z,7.43
2023-05-15T10:21:36.086Z,8.25
2023-05-15T10:24:05.541Z,6.63
2023-05-15T10:26:38.671Z,6.53
2023-05-15T10:29:08.212Z,6.18
2023-05-15T10:31:37.077Z,6.73
2023-05-15T10:34:05.940Z,7.00
2023-05-15T10:36:36.781Z,8.35
2023-05-15T10:39:06.660Z,6.85
2023-05-15T10:41:37.417Z,8.48
2023-05-15T10:44:06.483Z,7.30
2023-05-15T10:46:36.312Z,5.80
2023-05-15T10:49:05.528Z,5.43
2023-05-15T10:51:36.822Z,6.35
2023-05-15T10:54:05.890Z,5.55
2023-05-15T10:56:35.744Z,5.40
2023-05-15T10:59:08.031Z,6.13
2023-05-15T11:01:38.068Z,7.03
2023-05-15T11:04:08.577Z,6.22
2023-05-15T11:06:38.845Z,6.40
2023-05-15T11:09:34.474Z,6.63
2023-05-15T11:12:03.681Z,5.00
2023-05-15T11:14:32.926Z,4.70
2023-05-15T11:17:04.000Z,5.28
2023-05-15T11:19:40.766Z,6.95
2023-05-15T11:22:20.643Z,5.53
2023-05-15T11:24:51.974Z,5.47
2023-05-15T11:27:22.376Z,4.38
2023-05-15T11:32:45.131Z,4.93
2023-05-15T11:35:13.869Z,5.20
2023-05-15T11:37:45.327Z,8.73
2023-05-15T11:40:21.322Z,6.85
2023-05-15T11:43:06.824Z,6.40
2023-05-15T11:45:37.157Z,6.28
2023-05-15T11:50:36.273Z,6.10
2023-05-15T11:53:07.725Z,5.70
2023-05-15T11:55:37.612Z,4.35
2023-05-15T11:58:06.514Z,3.85
2023-05-15T12:00:35.181Z,4.78
2023-05-15T12:03:04.708Z,4.93
2023-05-15T12:05:33.177Z,4.87
2023-05-15T12:08:02.373Z,2.50
2023-05-15T12:10:33.185Z,5.95
2023-05-15T12:13:01.494Z,4.82
2023-05-15T12:15:29.855Z,5.45
2023-05-15T12:17:58.127Z,6.15
2023-05-15T12:20:26.734Z,14.60
2023-05-15T12:22:55.135Z,6.28
2023-05-15T12:25:23.363Z,6.72
2023-05-15T12:27:53.011Z,6.20
2023-05-15T12:30:21.293Z,6.47
2023-05-15T12:32:49.732Z,7.03
2023-05-15T12:35:18.036Z,4.05
2023-05-15T12:37:46.621Z,4.50
2023-05-15T12:40:15.262Z,4.75
2023-05-15T12:42:45.228Z,5.95
2023-05-15T12:45:15.847Z,6.97
2023-05-15T12:47:45.094Z,4.00
2023-05-15T12:50:17.136Z,3.67
2023-05-15T12:52:52.852Z,3.53
2023-05-15T12:55:24.472Z,3.35
2023-05-15T12:57:52.987Z,2.42
2023-05-15T13:00:24.027Z,2.53
2023-05-15T13:02:54.375Z,1.88
2023-05-15T13:05:24.174Z,2.72
2023-05-15T13:07:52.909Z,4.22
2023-05-15T13:10:23.297Z,3.28
2023-05-15T13:12:53.398Z,3.10
2023-05-15T13:15:27.456Z,3.72
2023-05-15T13:17:59.227Z,2.63
2023-05-15T13:20:28.420Z,2.70
2023-05-15T13:22:56.778Z,2.35
2023-05-15T13:25:25.033Z,2.78
2023-05-15T13:27:53.463Z,4.32
2023-05-15T13:30:21.752Z,3.35
2023-05-15T13:32:54.782Z,4.85
2023-05-15T13:35:24.034Z,4.78
2023-05-15T13:37:52.323Z,4.65
2023-05-15T13:40:21.270Z,5.85
2023-05-15T13:42:50.197Z,4.40
2023-05-15T13:45:18.499Z,4.82
2023-05-15T13:47:46.824Z,5.78
2023-05-15T13:50:16.872Z,4.47
2023-05-15T13:52:46.261Z,3.72
2023-05-15T13:55:14.740Z,3.43
2023-05-15T13:57:44.209Z,3.20
2023-05-15T14:00:13.989Z,4.10
2023-05-15T14:02:43.033Z,5.95
2023-05-15T14:05:12.149Z,4.68
2023-05-15T14:07:42.085Z,14.52
2023-05-15T14:10:11.474Z,110.53
2023-05-15T14:12:39.978Z,4.82
2023-05-15T14:15:11.143Z,5.15
2023-05-15T14:17:39.537Z,2.75
2023-05-15T14:20:10.000Z,3.78
2023-05-15T14:25:09.801Z,3.13
2023-05-15T14:27:38.057Z,2.92
2023-05-15T14:30:07.686Z,5.85
2023-05-15T14:32:36.021Z,2.97
2023-05-15T14:35:04.739Z,2.78
2023-05-15T14:37:33.024Z,3.25
2023-05-15T14:40:01.399Z,4.10
2023-05-15T14:42:31.178Z,3.10
2023-05-15T14:44:59.457Z,3.20
2023-05-15T14:47:29.989Z,3.38
2023-05-15T14:49:58.312Z,3.53
2023-05-15T14:52:26.554Z,1.67
2023-05-15T14:55:07.828Z,3.28
2023-05-15T14:57:39.110Z,2.42
2023-05-15T15:00:09.532Z,4.30
2023-05-15T15:05:07.432Z,2.67
2023-05-15T15:07:59.091Z,3.23
2023-05-15T15:10:27.552Z,3.65
2023-05-15T15:12:57.340Z,1.70
2023-05-15T15:15:25.745Z,2.55
2023-05-15T15:17:54.372Z,3.08
2023-05-15T15:20:23.136Z,3.22
2023-05-15T15:22:51.751Z,9.85
2023-05-15T15:25:20.551Z,3.10
2023-05-15T15:27:49.009Z,3.85
2023-05-15T15:30:18.617Z,3.30
2023-05-15T15:32:47.237Z,3.03
2023-05-15T15:35:15.504Z,3.70
2023-05-15T15:37:43.725Z,2.67
2023-05-15T15:40:12.295Z,3.88
2023-05-15T15:42:40.789Z,2.55
2023-05-15T15:45:09.672Z,2.53
2023-05-15T15:47:39.407Z,3.28
2023-05-15T15:50:08.424Z,2.80
2023-05-15T15:52:36.766Z,3.55
2023-05-15T15:55:05.640Z,5.03
2023-05-15T15:57:34.186Z,3.75
2023-05-15T16:00:02.509Z,4.45
2023-05-15T16:02:30.929Z,3.40
2023-05-15T16:05:00.548Z,3.00
2023-05-15T16:07:28.831Z,3.43
2023-05-15T16:10:10.588Z,3.53
2023-05-15T16:12:42.335Z,3.30
2023-05-15T16:17:41.832Z,4.75
2023-05-15T16:20:12.412Z,5.35
2023-05-15T16:22:41.783Z,4.85
2023-05-15T16:25:10.649Z,5.97
2023-05-15T16:27:38.841Z,3.55
2023-05-15T16:30:09.150Z,5.10
2023-05-15T16:32:37.451Z,5.07
2023-05-15T16:35:06.686Z,3.50
2023-05-15T16:37:36.461Z,4.45
2023-05-15T16:40:05.238Z,5.20
2023-05-15T16:42:36.528Z,6.38
2023-05-15T16:45:05.592Z,4.65
2023-05-15T16:47:33.974Z,5.63
2023-05-15T16:50:02.371Z,4.93
2023-05-15T16:52:30.682Z,4.38
2023-05-15T16:55:00.323Z,4.57
2023-05-15T16:57:28.732Z,7.17
2023-05-15T16:59:57.056Z,4.53
2023-05-15T17:02:25.456Z,3.58
2023-05-15T17:04:54.082Z,5.28
2023-05-15T17:07:22.341Z,3.33
2023-05-15T17:09:50.805Z,3.40
2023-05-15T17:12:20.906Z,3.63
2023-05-15T17:14:49.287Z,4.00
2023-05-15T17:17:17.816Z,3.85
2023-05-15T17:19:46.173Z,3.47
2023-05-15T17:22:14.429Z,4.78
2023-05-15T17:27:31.096Z,3.15
2023-05-15T17:29:59.390Z,4.13
2023-05-15T17:32:27.704Z,3.00
2023-05-15T17:34:56.185Z,2.83
2023-05-15T17:37:24.383Z,2.58
2023-05-15T17:39:52.607Z,3.88
2023-05-15T17:42:21.154Z,4.90
2023-05-15T17:44:50.756Z,3.83
2023-05-15T17:47:19.006Z,3.27
2023-05-15T17:49:47.254Z,4.45
2023-05-15T17:52:15.584Z,3.28
2023-05-15T17:54:43.775Z,3.38
2023-05-15T17:57:12.082Z,2.90
2023-05-15T17:59:40.373Z,2.95
2023-05-15T18:02:09.999Z,3.05
2023-05-15T18:04:38.255Z,4.57
2023-05-15T18:07:06.523Z,3.15
2023-05-15T18:09:34.884Z,3.97
2023-05-15T18:12:03.058Z,4.65
2023-05-15T18:14:31.340Z,4.05
2023-05-15T18:16:59.575Z,3.28
2023-05-15T18:19:29.192Z,3.55
2023-05-15T18:21:57.574Z,3.95
2023-05-15T18:24:25.850Z,3.65
2023-05-15T18:26:54.114Z,3.30
2023-05-15T18:29:22.348Z,4.72
2023-05-15T18:31:50.700Z,3.42
2023-05-15T18:34:19.133Z,3.47
2023-05-15T18:36:51.875Z,3.75
2023-05-15T18:39:20.228Z,3.90
2023-05-15T18:41:48.465Z,6.95
2023-05-15T18:44:16.784Z,5.53
2023-05-15T18:46:45.121Z,4.60
2023-05-15T18:49:13.386Z,4.00
2023-05-15T18:51:41.689Z,2.92
2023-05-15T18:54:11.615Z,5.53
2023-05-15T18:56:41.802Z,5.22
2023-05-15T18:59:11.342Z,2.92
2023-05-15T19:01:39.665Z,3.58
2023-05-15T19:04:08.687Z,4.93
2023-05-15T19:06:36.952Z,5.47
2023-05-15T19:09:05.553Z,3.20
2023-05-15T19:11:35.225Z,5.00
2023-05-15T19:14:03.437Z,4.80
2023-05-15T19:16:32.157Z,3.17
2023-05-15T19:19:00.696Z,5.00
2023-05-15T19:21:29.286Z,3.83
2023-05-15T19:23:57.557Z,5.05
2023-05-15T19:26:25.824Z,8.48
2023-05-15T19:28:55.754Z,4.03
2023-05-15T19:31:31.456Z,3.90
2023-05-15T19:34:00.799Z,4.03
2023-05-15T19:36:29.082Z,4.53
2023-05-15T19:38:57.329Z,4.07
2023-05-15T19:41:25.696Z,4.07
2023-05-15T19:43:55.380Z,4.40
2023-05-15T19:46:23.667Z,4.30
2023-05-15T19:48:51.985Z,5.53
2023-05-15T19:51:20.215Z,4.03
2023-05-15T19:53:48.515Z,4.47
2023-05-15T19:56:16.726Z,5.07
2023-05-15T19:58:44.950Z,4.88
2023-05-15T20:01:14.740Z,4.90
2023-05-15T20:03:43.167Z,3.60
2023-05-15T20:06:12.098Z,4.20
2023-05-15T20:08:40.559Z,4.18
2023-05-15T20:11:08.877Z,3.70
2023-05-15T20:13:37.550Z,3.75
2023-05-15T20:16:09.914Z,3.95
2023-05-15T20:18:40.200Z,3.45
2023-05-15T20:21:08.642Z,3.28
2023-05-15T20:23:36.873Z,3.38
2023-05-15T20:26:05.326Z,4.50
2023-05-15T20:28:33.896Z,5.93
2023-05-15T20:31:03.067Z,3.90
2023-05-15T20:33:31.545Z,4.20
2023-05-15T20:36:02.328Z,5.20
2023-05-15T20:38:30.599Z,4.82
2023-05-15T20:40:58.892Z,3.95
2023-05-15T20:43:27.132Z,4.47
2023-05-15T20:45:55.642Z,4.20
2023-05-15T20:48:23.863Z,5.75
2023-05-15T20:50:53.729Z,3.53
2023-05-15T20:53:23.493Z,11.27
2023-05-15T20:55:51.713Z,4.30
2023-05-15T20:58:19.932Z,4.25
2023-05-15T21:00:48.654Z,4.22
2023-05-15T21:03:17.157Z,5.28
2023-05-15T21:05:45.810Z,5.18
2023-05-15T21:08:14.079Z,5.43
2023-05-15T21:10:43.649Z,6.22
2023-05-15T21:13:11.963Z,5.38
2023-05-15T21:15:40.198Z,5.70
2023-05-15T21:18:08.467Z,4.10
2023-05-15T21:20:36.730Z,4.00
2023-05-15T21:23:05.002Z,4.90
2023-05-15T21:25:33.941Z,4.60
2023-05-15T21:28:03.638Z,4.20
2023-05-15T21:30:32.339Z,4.00
2023-05-15T21:33:00.635Z,4.10
2023-05-15T21:35:31.703Z,5.90
2023-05-15T21:38:00.367Z,3.67
2023-05-15T21:40:28.908Z,5.70
2023-05-15T21:42:57.379Z,4.50
2023-05-15T21:45:27.004Z,5.13
2023-05-15T21:47:55.325Z,5.13
2023-05-15T21:50:23.670Z,3.70
2023-05-15T21:52:51.904Z,8.02
2023-05-15T21:55:20.395Z,4.47
2023-05-15T21:57:48.660Z,4.70
2023-05-15T22:00:17.719Z,4.32
2023-05-15T22:02:47.489Z,4.50
2023-05-15T22:05:16.134Z,5.73
2023-05-15T22:07:44.593Z,3.45
2023-05-15T22:10:16.373Z,6.43
2023-05-15T22:12:44.816Z,4.28
2023-05-15T22:15:14.493Z,5.28
2023-05-15T22:17:42.840Z,5.23
2023-05-15T22:20:13.964Z,5.57
2023-05-15T22:22:43.502Z,5.05
2023-05-15T22:25:11.947Z,3.10
2023-05-15T22:27:40.196Z,4.80
2023-05-15T22:30:09.773Z,5.13
2023-05-15T22:32:38.008Z,6.35
2023-05-15T22:35:07.296Z,5.50
2023-05-15T22:37:36.994Z,5.07
2023-05-15T22:40:07.493Z,6.37
2023-05-15T22:45:04.177Z,4.35
2023-05-15T22:47:32.646Z,8.32
2023-05-15T22:50:00.924Z,4.10
2023-05-15T22:52:29.171Z,6.82
2023-05-15T22:54:58.743Z,4.30
2023-05-15T22:57:27.013Z,3.92
2023-05-15T22:59:55.576Z,6.78
2023-05-15T23:02:23.975Z,5.55
2023-05-15T23:04:52.238Z,5.43
2023-05-15T23:07:20.626Z,4.90
2023-05-15T23:09:48.866Z,4.95
2023-05-15T23:12:18.503Z,5.25
2023-05-15T23:14:46.742Z,6.13
2023-05-15T23:17:15.098Z,3.92
2023-05-15T23:19:43.414Z,4.38
2023-05-15T23:22:12.789Z,5.18
2023-05-15T23:24:41.038Z,5.40
2023-05-15T23:27:09.261Z,5.32
2023-05-15T23:29:38.871Z,5.05
2023-05-15T23:32:08.160Z,6.22
2023-05-15T23:34:36.390Z,6.53
2023-05-15T23:37:04.747Z,5.85
2023-05-15T23:39:32.952Z,6.30
2023-05-15T23:42:01.274Z,4.57
2023-05-15T23:44:31.412Z,6.00
2023-05-15T23:47:01.072Z,7.05
2023-05-15T23:49:29.346Z,5.83
2023-05-15T23:51:57.603Z,6.97
2023-05-15T23:54:25.992Z,5.47
2023-05-15T23:56:54.309Z,5.22
2023-05-15T23:59:22.760Z,6.38
